Time;durP1;ratioP1;P1;durP2;ratioP2;P2;SDS_P1;SDS_P2;PMS_P1;PMS_P2;Temp;Humidity;BMP_temperature;BMP_pressure;BME280_temperature;BME280_humidity;BME280_pressure;Samples;Min_cycle;Max_cycle;Signal;HPM_P1;HPM_P2
2023/03/09 00:01:46;;;;;;;22.90;12.57;;;;;;;;;;5012947;28;20446;-69
2023/03/09 00:04:14;;;;;;;29.13;12.80;;;;;;;;;;5012921;28;20050;-69
2023/03/09 00:06:40;;;;;;;25.05;11.95;;;;;;;;;;5012922;28;20026;-67
2023/03/09 00:09:05;;;;;;;24.27;12.05;;;;;;;;;;5012849;28;20038;-67
2023/03/09 00:11:31;;;;;;;22.58;11.40;;;;;;;;;;5012589;28;20022;-70
2023/03/09 00:13:57;;;;;;;26.40;13.32;;;;;;;;;;5001136;28;20443;-66
2023/03/09 00:16:24;;;;;;;30.38;12.93;;;;;;;;;;4980257;28;20072;-67
2023/03/09 00:18:53;;;;;;;27.20;11.27;;;;;;;;;;4981817;28;20031;-67
2023/03/09 00:21:36;;;;;;;31.33;11.85;;;;;;;;;;4983017;28;20481;-68
2023/03/09 00:24:10;;;;;;;28.80;13.65;;;;;;;;;;4983324;28;20030;-67
2023/03/09 00:26:38;;;;;;;26.25;12.27;;;;;;;;;;4982184;28;20105;-67
2023/03/09 00:29:05;;;;;;;23.70;12.30;;;;;;;;;;4982089;28;20053;-68
2023/03/09 00:31:31;;;;;;;27.75;12.13;;;;;;;;;;4985428;28;20080;-68
2023/03/09 00:33:56;;;;;;;26.05;11.52;;;;;;;;;;4986185;28;20059;-68
2023/03/09 00:36:22;;;;;;;24.98;11.43;;;;;;;;;;4986179;28;20019;-68
2023/03/09 00:38:55;;;;;;;21.98;10.45;;;;;;;;;;4987338;28;20054;-68
2023/03/09 00:41:22;;;;;;;20.80;10.77;;;;;;;;;;4991951;28;20026;-68
2023/03/09 00:43:48;;;;;;;22.85;10.68;;;;;;;;;;4996602;28;20044;-68
2023/03/09 00:46:13;;;;;;;25.77;12.18;;;;;;;;;;4995067;28;20121;-68
2023/03/09 00:48:40;;;;;;;20.45;10.30;;;;;;;;;;4995242;28;20031;-69
2023/03/09 00:51:06;;;;;;;23.30;10.60;;;;;;;;;;4987036;28;20034;-69
2023/03/09 00:53:32;;;;;;;28.80;11.63;;;;;;;;;;4985499;28;20021;-68
2023/03/09 00:56:01;;;;;;;22.90;11.73;;;;;;;;;;4985539;28;20031;-68
2023/03/09 00:58:27;;;;;;;23.77;11.32;;;;;;;;;;4983188;28;20061;-68
2023/03/09 01:00:52;;;;;;;20.98;10.15;;;;;;;;;;4985372;28;20066;-68
2023/03/09 01:03:18;;;;;;;22.17;11.10;;;;;;;;;;4985799;28;20015;-68
2023/03/09 01:05:43;;;;;;;17.83;9.98;;;;;;;;;;4984021;28;20031;-68
2023/03/09 01:08:08;;;;;;;17.58;10.40;;;;;;;;;;4985888;28;20368;-68
2023/03/09 01:10:37;;;;;;;26.42;11.70;;;;;;;;;;4984818;28;20028;-68
2023/03/09 01:13:03;;;;;;;19.25;10.32;;;;;;;;;;4983913;28;20034;-68
2023/03/09 01:15:28;;;;;;;29.10;11.80;;;;;;;;;;4985724;28;20452;-68
2023/03/09 01:17:54;;;;;;;22.60;10.52;;;;;;;;;;4984841;28;20023;-68
2023/03/09 01:20:19;;;;;;;27.05;11.82;;;;;;;;;;4989366;28;20137;-68
2023/03/09 01:22:44;;;;;;;21.45;10.07;;;;;;;;;;4994964;28;20089;-68
2023/03/09 01:25:10;;;;;;;23.38;11.43;;;;;;;;;;4994637;28;20030;-68
2023/03/09 01:27:35;;;;;;;21.85;10.25;;;;;;;;;;4994791;28;20061;-68
2023/03/09 01:30:01;;;;;;;23.15;11.32;;;;;;;;;;4994671;28;20104;-68
2023/03/09 01:32:26;;;;;;;22.38;10.05;;;;;;;;;;4994693;28;20050;-68
2023/03/09 01:34:52;;;;;;;24.08;12.60;;;;;;;;;;4994697;28;20047;-68
2023/03/09 01:37:19;;;;;;;29.90;13.30;;;;;;;;;;4994634;28;20034;-68
2023/03/09 01:39:44;;;;;;;24.73;11.18;;;;;;;;;;4994392;28;20109;-68
2023/03/09 01:42:10;;;;;;;24.50;12.65;;;;;;;;;;4994620;28;20105;-68
2023/03/09 01:44:36;;;;;;;27.48;12.00;;;;;;;;;;4994435;28;20110;-68
2023/03/09 01:47:02;;;;;;;22.67;11.63;;;;;;;;;;4994637;28;20164;-68
2023/03/09 01:49:43;;;;;;;20.67;9.50;;;;;;;;;;4994615;28;20499;-68
2023/03/09 01:52:24;;;;;;;20.65;9.70;;;;;;;;;;4994576;28;20034;-68
2023/03/09 01:54:58;;;;;;;28.55;10.85;;;;;;;;;;4994407;28;20034;-68
2023/03/09 01:57:34;;;;;;;19.83;9.20;;;;;;;;;;4994341;28;20062;-68
2023/03/09 02:00:05;;;;;;;23.65;10.23;;;;;;;;;;4994356;28;20034;-68
2023/03/09 02:02:35;;;;;;;22.02;11.57;;;;;;;;;;4994292;28;20463;-68
2023/03/09 02:05:04;;;;;;;21.30;10.00;;;;;;;;;;4994351;28;20034;-68
2023/03/09 02:07:34;;;;;;;19.98;8.70;;;;;;;;;;4993965;28;20149;-68
2023/03/09 02:10:13;;;;;;;22.20;10.65;;;;;;;;;;4994333;28;20027;-68
2023/03/09 02:12:40;;;;;;;23.25;9.52;;;;;;;;;;4994167;28;20045;-68
2023/03/09 02:15:06;;;;;;;21.20;10.00;;;;;;;;;;4993932;28;20030;-68
2023/03/09 02:17:32;;;;;;;23.75;10.35;;;;;;;;;;4993836;28;20073;-68
2023/03/09 02:20:04;;;;;;;21.95;10.25;;;;;;;;;;4993856;28;20431;-68
2023/03/09 02:22:34;;;;;;;19.70;9.93;;;;;;;;;;4993690;28;20038;-67
2023/03/09 02:25:02;;;;;;;23.73;11.02;;;;;;;;;;4993766;28;20523;-68
2023/03/09 02:27:27;;;;;;;21.40;10.98;;;;;;;;;;4993695;28;20060;-68
2023/03/09 02:29:55;;;;;;;24.60;10.35;;;;;;;;;;4993522;28;20066;-68
2023/03/09 02:32:20;;;;;;;24.35;11.32;;;;;;;;;;5004117;28;20030;-68
2023/03/09 02:34:46;;;;;;;16.05;9.43;;;;;;;;;;5012063;28;20025;-68
2023/03/09 02:37:41;;;;;;;21.83;10.63;;;;;;;;;;5012967;28;20052;-68
2023/03/09 02:40:18;;;;;;;21.90;10.63;;;;;;;;;;5008447;28;20038;-68
2023/03/09 02:42:45;;;;;;;19.20;8.63;;;;;;;;;;5010846;28;20087;-68
2023/03/09 02:45:14;;;;;;;22.13;9.90;;;;;;;;;;4993171;28;20113;-68
2023/03/09 02:47:40;;;;;;;19.25;9.30;;;;;;;;;;4993858;28;20076;-68
2023/03/09 02:50:07;;;;;;;24.25;10.18;;;;;;;;;;4993955;28;20383;-68
2023/03/09 02:52:32;;;;;;;21.70;10.15;;;;;;;;;;4993949;28;20383;-67
2023/03/09 02:54:58;;;;;;;21.15;8.70;;;;;;;;;;4993423;28;20118;-68
2023/03/09 02:57:23;;;;;;;22.17;10.80;;;;;;;;;;4993917;28;20349;-67
2023/03/09 02:59:48;;;;;;;20.23;8.60;;;;;;;;;;4993888;28;20483;-68
2023/03/09 03:02:14;;;;;;;21.42;10.52;;;;;;;;;;4993592;28;20027;-68
2023/03/09 03:04:39;;;;;;;21.83;10.88;;;;;;;;;;4993317;28;20030;-68
2023/03/09 03:07:05;;;;;;;19.65;8.68;;;;;;;;;;4993146;28;20041;-68
2023/03/09 03:09:30;;;;;;;19.50;9.23;;;;;;;;;;4993515;28;20052;-69
2023/03/09 03:11:56;;;;;;;18.52;10.13;;;;;;;;;;4993394;28;20026;-68
2023/03/09 03:14:22;;;;;;;22.77;10.93;;;;;;;;;;4991650;28;20026;-68
2023/03/09 03:16:47;;;;;;;18.90;8.10;;;;;;;;;;4992824;28;20034;-68
2023/03/09 03:19:13;;;;;;;15.90;8.25;;;;;;;;;;4992788;28;20022;-68
2023/03/09 03:21:38;;;;;;;17.55;9.40;;;;;;;;;;4992647;28;20026;-68
2023/03/09 03:24:04;;;;;;;19.20;9.70;;;;;;;;;;4993158;28;20103;-68
2023/03/09 03:26:29;;;;;;;16.30;8.05;;;;;;;;;;4992939;28;20026;-68
2023/03/09 03:28:55;;;;;;;18.63;8.40;;;;;;;;;;4993179;28;20042;-68
2023/03/09 03:31:20;;;;;;;21.23;9.38;;;;;;;;;;4996900;28;20034;-68
2023/03/09 03:33:46;;;;;;;15.55;8.43;;;;;;;;;;5012915;28;20025;-68
2023/03/09 03:36:11;;;;;;;19.38;8.75;;;;;;;;;;5012571;28;20026;-68
2023/03/09 03:38:37;;;;;;;13.70;7.32;;;;;;;;;;5012807;28;20120;-68
2023/03/09 03:41:03;;;;;;;14.50;7.43;;;;;;;;;;5012675;28;20045;-67
2023/03/09 03:43:28;;;;;;;15.65;8.30;;;;;;;;;;5012049;28;20061;-68
2023/03/09 03:45:54;;;;;;;19.83;8.43;;;;;;;;;;5012188;28;20497;-68
2023/03/09 03:48:19;;;;;;;16.23;7.70;;;;;;;;;;5012086;28;20037;-68
2023/03/09 03:50:45;;;;;;;20.85;8.60;;;;;;;;;;5012073;28;20057;-68
2023/03/09 03:53:10;;;;;;;16.55;8.63;;;;;;;;;;5012762;28;20030;-68
2023/03/09 03:55:36;;;;;;;19.02;9.25;;;;;;;;;;5012570;28;20386;-68
2023/03/09 03:58:02;;;;;;;16.20;7.65;;;;;;;;;;5012550;28;20485;-68
2023/03/09 04:00:27;;;;;;;18.95;8.45;;;;;;;;;;5012471;28;20041;-68
2023/03/09 04:02:53;;;;;;;16.92;8.48;;;;;;;;;;5012567;28;20049;-68
2023/03/09 04:05:18;;;;;;;15.27;8.10;;;;;;;;;;5012094;28;20014;-68
2023/03/09 04:07:44;;;;;;;15.05;7.88;;;;;;;;;;5014649;28;20018;-68
2023/03/09 04:10:10;;;;;;;17.85;9.00;;;;;;;;;;5016567;28;20100;-68
2023/03/09 04:12:36;;;;;;;14.38;8.27;;;;;;;;;;5016546;28;20578;-68
2023/03/09 04:15:01;;;;;;;18.90;8.43;;;;;;;;;;5015782;28;20105;-68
2023/03/09 04:17:27;;;;;;;16.63;8.27;;;;;;;;;;5015652;28;20022;-68
2023/03/09 04:19:52;;;;;;;16.95;8.00;;;;;;;;;;5015535;28;20471;-68
2023/03/09 04:22:17;;;;;;;18.58;9.35;;;;;;;;;;5015574;28;20018;-68
2023/03/09 04:24:43;;;;;;;19.80;8.65;;;;;;;;;;5016209;28;20053;-68
2023/03/09 04:27:08;;;;;;;15.40;8.50;;;;;;;;;;5016144;28;20026;-68
2023/03/09 04:29:34;;;;;;;19.67;8.25;;;;;;;;;;5016010;28;20050;-68
2023/03/09 04:31:59;;;;;;;19.05;8.88;;;;;;;;;;5016006;28;20029;-68
2023/03/09 04:34:25;;;;;;;22.17;9.55;;;;;;;;;;5015932;28;20058;-68
2023/03/09 04:36:50;;;;;;;17.30;9.70;;;;;;;;;;5016045;28;20033;-67
2023/03/09 04:39:15;;;;;;;17.08;8.70;;;;;;;;;;5015934;28;20095;-68
2023/03/09 04:41:41;;;;;;;19.55;9.77;;;;;;;;;;5015803;28;20533;-68
2023/03/09 04:44:06;;;;;;;21.15;10.05;;;;;;;;;;5015228;28;20514;-68
2023/03/09 04:46:32;;;;;;;30.27;11.20;;;;;;;;;;5015234;28;20459;-68
2023/03/09 04:48:57;;;;;;;23.50;11.00;;;;;;;;;;5013788;28;20025;-68
2023/03/09 04:51:23;;;;;;;23.60;11.20;;;;;;;;;;5015472;28;20487;-68
2023/03/09 04:53:48;;;;;;;25.17;11.75;;;;;;;;;;5016118;28;20459;-68
2023/03/09 04:56:13;;;;;;;24.15;11.27;;;;;;;;;;5015557;28;20359;-68
2023/03/09 04:58:39;;;;;;;17.42;9.55;;;;;;;;;;5015705;28;20531;-68
2023/03/09 05:01:05;;;;;;;20.73;9.57;;;;;;;;;;5014294;28;20125;-68
2023/03/09 05:03:31;;;;;;;22.48;9.65;;;;;;;;;;5015211;28;20025;-67
2023/03/09 05:05:56;;;;;;;14.82;8.15;;;;;;;;;;5015524;28;20375;-67
2023/03/09 05:08:22;;;;;;;18.05;9.00;;;;;;;;;;5014877;28;20143;-68
2023/03/09 05:10:47;;;;;;;18.75;9.35;;;;;;;;;;5014643;28;20044;-67
2023/03/09 05:13:13;;;;;;;17.63;9.07;;;;;;;;;;5014760;28;20025;-69
2023/03/09 05:15:39;;;;;;;21.98;9.65;;;;;;;;;;5014778;28;20189;-68
2023/03/09 05:18:05;;;;;;;15.18;8.10;;;;;;;;;;5013972;28;20029;-68
2023/03/09 05:20:32;;;;;;;18.65;9.57;;;;;;;;;;5014652;28;20073;-67
2023/03/09 05:22:58;;;;;;;17.85;8.13;;;;;;;;;;5015183;28;20026;-67
2023/03/09 05:25:24;;;;;;;18.23;8.88;;;;;;;;;;5015365;28;20034;-68
2023/03/09 05:27:49;;;;;;;17.48;8.70;;;;;;;;;;5015133;28;20077;-68
2023/03/09 05:30:15;;;;;;;20.30;9.90;;;;;;;;;;5014595;28;20574;-68
2023/03/09 05:32:41;;;;;;;21.15;9.77;;;;;;;;;;5014942;28;20056;-68
2023/03/09 05:35:07;;;;;;;22.02;9.95;;;;;;;;;;5014943;28;20026;-67
2023/03/09 05:37:33;;;;;;;19.00;8.95;;;;;;;;;;5014820;28;20034;-67
2023/03/09 05:39:59;;;;;;;21.48;9.98;;;;;;;;;;5014632;28;20041;-68
2023/03/09 05:42:24;;;;;;;16.20;8.80;;;;;;;;;;5014183;28;20022;-68
2023/03/09 05:44:50;;;;;;;18.33;9.75;;;;;;;;;;5013988;28;20022;-67
2023/03/09 05:47:15;;;;;;;18.48;9.30;;;;;;;;;;5013522;28;20089;-67
2023/03/09 05:49:41;;;;;;;19.13;9.13;;;;;;;;;;5014047;28;20026;-67
2023/03/09 05:52:06;;;;;;;21.50;8.88;;;;;;;;;;5013166;28;20018;-67
2023/03/09 05:54:32;;;;;;;12.85;7.47;;;;;;;;;;5013385;28;20034;-67
2023/03/09 05:56:57;;;;;;;19.30;9.05;;;;;;;;;;5014368;28;20534;-67
2023/03/09 05:59:23;;;;;;;21.85;10.70;;;;;;;;;;5013502;28;20460;-67
2023/03/09 06:01:48;;;;;;;11.32;6.35;;;;;;;;;;5013929;28;20171;-67
2023/03/09 06:04:14;;;;;;;23.15;9.65;;;;;;;;;;5013693;28;20022;-67
2023/03/09 06:06:39;;;;;;;20.73;9.35;;;;;;;;;;5013584;28;20044;-67
2023/03/09 06:09:05;;;;;;;16.88;8.73;;;;;;;;;;5014342;28;20022;-67
2023/03/09 06:11:31;;;;;;;23.30;11.57;;;;;;;;;;5014082;28;20025;-67
2023/03/09 06:13:57;;;;;;;39.75;13.65;;;;;;;;;;5013961;28;20026;-67
2023/03/09 06:16:24;;;;;;;23.10;10.48;;;;;;;;;;5013982;28;20026;-67
2023/03/09 06:18:50;;;;;;;25.65;10.88;;;;;;;;;;5014139;28;20372;-67
2023/03/09 06:21:16;;;;;;;17.10;7.65;;;;;;;;;;5014061;28;20041;-67
2023/03/09 06:23:41;;;;;;;21.65;10.20;;;;;;;;;;5014042;28;20022;-67
2023/03/09 06:26:10;;;;;;;18.45;9.43;;;;;;;;;;5013888;28;20357;-68
2023/03/09 06:28:36;;;;;;;13.82;6.88;;;;;;;;;;5012850;28;20057;-67
2023/03/09 06:31:11;;;;;;;21.40;10.13;;;;;;;;;;5012063;28;20057;-67
2023/03/09 06:33:38;;;;;;;16.95;9.00;;;;;;;;;;5013242;28;20026;-67
2023/03/09 06:36:03;;;;;;;19.23;8.90;;;;;;;;;;5013472;28;20029;-67
2023/03/09 06:38:29;;;;;;;15.98;8.55;;;;;;;;;;5013565;28;20026;-67
2023/03/09 06:40:55;;;;;;;18.92;7.72;;;;;;;;;;5013476;28;20026;-67
2023/03/09 06:43:21;;;;;;;6.03;3.70;;;;;;;;;;5013358;28;20486;-67
2023/03/09 06:45:46;;;;;;;15.10;7.35;;;;;;;;;;5013431;28;20026;-67
2023/03/09 06:48:12;;;;;;;13.07;5.88;;;;;;;;;;5013496;28;20022;-67
2023/03/09 06:50:37;;;;;;;17.38;8.73;;;;;;;;;;5013566;28;20034;-67
2023/03/09 06:53:03;;;;;;;18.15;9.20;;;;;;;;;;5013254;28;20057;-67
2023/03/09 06:55:28;;;;;;;17.58;9.32;;;;;;;;;;5013115;28;20025;-67
2023/03/09 06:57:54;;;;;;;15.63;8.50;;;;;;;;;;5012602;28;20033;-68
2023/03/09 07:00:20;;;;;;;13.02;7.32;;;;;;;;;;5012596;28;20029;-67
2023/03/09 07:02:46;;;;;;;17.20;8.15;;;;;;;;;;5012465;28;20076;-67
2023/03/09 07:05:12;;;;;;;17.58;8.32;;;;;;;;;;5012726;28;20414;-67
2023/03/09 07:07:37;;;;;;;14.00;8.55;;;;;;;;;;5013097;28;20037;-67
2023/03/09 07:10:05;;;;;;;15.88;8.55;;;;;;;;;;5013069;28;20410;-67
2023/03/09 07:12:30;;;;;;;18.70;9.38;;;;;;;;;;5012866;28;20164;-67
2023/03/09 07:14:56;;;;;;;17.40;8.13;;;;;;;;;;5012832;28;20523;-67
2023/03/09 07:17:21;;;;;;;16.88;7.75;;;;;;;;;;5012960;28;20029;-68
2023/03/09 07:19:47;;;;;;;13.65;7.68;;;;;;;;;;5012963;28;20029;-67
2023/03/09 07:22:13;;;;;;;14.20;8.25;;;;;;;;;;5012933;28;20030;-67
2023/03/09 07:24:38;;;;;;;16.15;8.15;;;;;;;;;;5013142;28;20521;-67
2023/03/09 07:27:05;;;;;;;16.35;8.60;;;;;;;;;;5012091;28;20026;-68
2023/03/09 07:29:31;;;;;;;18.23;5.47;;;;;;;;;;5011863;28;20419;-68
2023/03/09 07:31:56;;;;;;;12.05;6.63;;;;;;;;;;5012010;28;20030;-68
2023/03/09 07:34:22;;;;;;;12.75;8.23;;;;;;;;;;5012216;28;20056;-68
2023/03/09 07:36:48;;;;;;;10.30;5.78;;;;;;;;;;5012636;28;20036;-68
2023/03/09 07:39:14;;;;;;;10.18;4.57;;;;;;;;;;5012755;28;20036;-67
2023/03/09 07:41:41;;;;;;;14.43;6.38;;;;;;;;;;5012307;28;20490;-68
2023/03/09 07:44:07;;;;;;;16.80;7.32;;;;;;;;;;5012685;28;20053;-68
2023/03/09 07:46:32;;;;;;;11.60;6.15;;;;;;;;;;5012505;28;20068;-68
2023/03/09 07:48:58;;;;;;;15.45;7.55;;;;;;;;;;5011129;28;20034;-68
2023/03/09 07:51:23;;;;;;;17.88;7.45;;;;;;;;;;5012695;28;20034;-68
2023/03/09 07:53:49;;;;;;;13.35;6.13;;;;;;;;;;5012645;28;20037;-68
2023/03/09 07:56:14;;;;;;;14.77;6.35;;;;;;;;;;5012322;28;20440;-67
2023/03/09 07:58:40;;;;;;;10.73;6.13;;;;;;;;;;5012041;28;20475;-68
2023/03/09 08:01:14;;;;;;;14.27;5.63;;;;;;;;;;4997652;28;20041;-68
2023/03/09 08:03:40;;;;;;;19.00;6.70;;;;;;;;;;4978645;28;20073;-67
2023/03/09 08:06:06;;;;;;;13.82;5.45;;;;;;;;;;4992144;28;20027;-67
2023/03/09 08:08:32;;;;;;;18.63;8.32;;;;;;;;;;4992758;28;20037;-67
2023/03/09 08:11:00;;;;;;;15.70;6.45;;;;;;;;;;4992442;28;20037;-68
2023/03/09 08:13:26;;;;;;;14.77;6.70;;;;;;;;;;4992891;28;20461;-67
2023/03/09 08:15:52;;;;;;;12.60;6.00;;;;;;;;;;4992814;28;20030;-68
2023/03/09 08:18:18;;;;;;;19.23;8.07;;;;;;;;;;4992665;28;20072;-68
2023/03/09 08:20:45;;;;;;;14.60;6.05;;;;;;;;;;4992626;28;20033;-67
2023/03/09 08:23:11;;;;;;;15.13;7.05;;;;;;;;;;4992634;28;20026;-68
2023/03/09 08:25:36;;;;;;;11.98;5.88;;;;;;;;;;4992051;28;20035;-68
2023/03/09 08:28:03;;;;;;;12.45;7.20;;;;;;;;;;4992696;28;20022;-68
2023/03/09 08:30:29;;;;;;;14.75;7.85;;;;;;;;;;4986944;28;20035;-68
2023/03/09 08:32:54;;;;;;;14.15;6.80;;;;;;;;;;4983718;28;20079;-68
2023/03/09 08:35:23;;;;;;;11.38;6.43;;;;;;;;;;4990768;28;20552;-69
2023/03/09 08:37:49;;;;;;;11.75;4.60;;;;;;;;;;4992228;28;20027;-69
2023/03/09 08:40:16;;;;;;;7.82;4.18;;;;;;;;;;4991636;28;20022;-69
2023/03/09 08:42:42;;;;;;;10.65;5.70;;;;;;;;;;4991019;28;20023;-69
2023/03/09 08:45:09;;;;;;;12.00;5.00;;;;;;;;;;4992600;28;20095;-69
2023/03/09 08:47:34;;;;;;;14.13;6.10;;;;;;;;;;4992149;28;20030;-69
2023/03/09 08:50:00;;;;;;;15.93;7.38;;;;;;;;;;4990368;28;20375;-69
2023/03/09 08:52:25;;;;;;;13.40;6.45;;;;;;;;;;4992151;28;20030;-69
2023/03/09 08:54:51;;;;;;;11.73;6.55;;;;;;;;;;4995435;28;20443;-69
2023/03/09 08:57:17;;;;;;;13.57;6.50;;;;;;;;;;4995590;28;20104;-68
2023/03/09 08:59:43;;;;;;;10.60;5.85;;;;;;;;;;4990904;28;20124;-69
2023/03/09 09:02:14;;;;;;;8.98;4.13;;;;;;;;;;4995021;28;20025;-68
2023/03/09 09:04:46;;;;;;;17.08;7.85;;;;;;;;;;4995322;28;20022;-69
2023/03/09 09:07:13;;;;;;;15.75;7.90;;;;;;;;;;4995167;28;20110;-69
2023/03/09 09:09:38;;;;;;;13.00;5.93;;;;;;;;;;4995211;28;20435;-69
2023/03/09 09:12:05;;;;;;;17.13;8.93;;;;;;;;;;4995079;28;20027;-69
2023/03/09 09:14:31;;;;;;;20.45;7.40;;;;;;;;;;4994772;28;20394;-69
2023/03/09 09:16:56;;;;;;;18.42;8.48;;;;;;;;;;4994704;28;20105;-69
2023/03/09 09:19:22;;;;;;;20.55;9.20;;;;;;;;;;4994736;28;20030;-69
2023/03/09 09:21:48;;;;;;;16.27;8.45;;;;;;;;;;4995127;28;20073;-69
2023/03/09 09:24:14;;;;;;;11.00;6.20;;;;;;;;;;4995096;28;20114;-69
2023/03/09 09:26:40;;;;;;;13.63;6.05;;;;;;;;;;4995098;28;20414;-68
2023/03/09 09:29:06;;;;;;;15.07;6.22;;;;;;;;;;4994919;28;20053;-69
2023/03/09 09:31:33;;;;;;;15.48;7.07;;;;;;;;;;5000218;28;20112;-69
2023/03/09 09:33:59;;;;;;;11.90;6.43;;;;;;;;;;5014560;28;20053;-69
2023/03/09 09:36:24;;;;;;;13.13;6.45;;;;;;;;;;5014119;28;20022;-68
2023/03/09 09:38:52;;;;;;;13.90;6.20;;;;;;;;;;4991695;28;20038;-68
2023/03/09 09:41:24;;;;;;;11.98;6.40;;;;;;;;;;4995166;28;20461;-69
2023/03/09 09:43:55;;;;;;;6.35;3.90;;;;;;;;;;4995262;28;20026;-68
2023/03/09 09:46:22;;;;;;;8.95;5.05;;;;;;;;;;4995195;28;20022;-68
2023/03/09 09:48:49;;;;;;;11.38;6.03;;;;;;;;;;4994870;28;20034;-69
2023/03/09 09:51:34;;;;;;;15.32;5.70;;;;;;;;;;4994811;28;20033;-68
2023/03/09 09:54:48;;;;;;;11.40;6.20;;;;;;;;;;4995504;28;20367;-68
2023/03/09 09:57:40;;;;;;;8.35;5.10;;;;;;;;;;4973376;28;20050;-69
2023/03/09 10:00:14;;;;;;;15.20;5.97;;;;;;;;;;4973324;28;20047;-68
2023/03/09 10:02:52;;;;;;;12.57;6.47;;;;;;;;;;4973211;28;20430;-69
2023/03/09 10:05:24;;;;;;;14.38;6.53;;;;;;;;;;4973266;28;20034;-68
2023/03/09 10:07:51;;;;;;;7.80;4.43;;;;;;;;;;4973025;28;20129;-69
2023/03/09 10:10:21;;;;;;;8.70;4.32;;;;;;;;;;4973153;28;20114;-68
2023/03/09 10:12:46;;;;;;;10.50;5.55;;;;;;;;;;4973080;28;20053;-69
2023/03/09 10:15:22;;;;;;;10.80;5.72;;;;;;;;;;4973073;28;20031;-69
2023/03/09 10:17:54;;;;;;;8.43;4.65;;;;;;;;;;4973069;28;20037;-69
2023/03/09 10:20:40;;;;;;;10.57;5.35;;;;;;;;;;4972771;28;20530;-69
2023/03/09 10:23:33;;;;;;;10.00;6.03;;;;;;;;;;4971914;28;20070;-68
2023/03/09 10:26:14;;;;;;;11.52;6.70;;;;;;;;;;4969562;28;20031;-69
2023/03/09 10:28:44;;;;;;;9.43;4.97;;;;;;;;;;4972557;28;20033;-69
2023/03/09 10:31:29;;;;;;;10.52;4.72;;;;;;;;;;4972728;28;20550;-69
2023/03/09 10:34:23;;;;;;;6.10;3.58;;;;;;;;;;4974939;28;20089;-67
2023/03/09 10:36:58;;;;;;;14.07;4.38;;;;;;;;;;4974301;28;20035;-67
2023/03/09 10:39:24;;;;;;;6.78;4.43;;;;;;;;;;4974749;28;20026;-67
2023/03/09 10:41:54;;;;;;;12.63;5.90;;;;;;;;;;4989767;28;20051;-67
2023/03/09 10:44:21;;;;;;;12.32;4.90;;;;;;;;;;4974759;28;20114;-67
2023/03/09 10:47:01;;;;;;;11.13;5.93;;;;;;;;;;4974320;28;20034;-67
2023/03/09 10:49:27;;;;;;;12.23;5.00;;;;;;;;;;4974353;28;20172;-68
2023/03/09 10:52:15;;;;;;;9.75;5.40;;;;;;;;;;4990772;28;20058;-68
2023/03/09 10:54:41;;;;;;;17.10;5.95;;;;;;;;;;4993785;28;20019;-68
2023/03/09 10:57:29;;;;;;;13.05;7.25;;;;;;;;;;4993521;28;20430;-68
2023/03/09 10:59:58;;;;;;;15.60;7.60;;;;;;;;;;4993830;28;20042;-68
2023/03/09 11:02:35;;;;;;;13.02;6.90;;;;;;;;;;4993840;28;20040;-68
2023/03/09 11:05:22;;;;;;;14.73;6.63;;;;;;;;;;4992630;28;20051;-68
2023/03/09 11:07:50;;;;;;;16.58;7.55;;;;;;;;;;4993534;28;20498;-68
2023/03/09 11:10:23;;;;;;;8.68;4.57;;;;;;;;;;4993789;28;20022;-68
2023/03/09 11:12:49;;;;;;;13.32;6.57;;;;;;;;;;4993650;28;20059;-68
2023/03/09 11:15:14;;;;;;;10.75;5.72;;;;;;;;;;4993482;28;20077;-68
2023/03/09 11:17:48;;;;;;;13.73;6.38;;;;;;;;;;4992095;28;20026;-68
2023/03/09 11:20:33;;;;;;;10.10;6.63;;;;;;;;;;4993144;28;20038;-68
2023/03/09 11:23:17;;;;;;;10.10;5.72;;;;;;;;;;4993424;28;20034;-68
2023/03/09 11:26:07;;;;;;;11.98;5.88;;;;;;;;;;4993434;28;20026;-68
2023/03/09 11:28:45;;;;;;;10.50;5.03;;;;;;;;;;4992112;28;20033;-68
2023/03/09 11:31:17;;;;;;;10.38;5.65;;;;;;;;;;4995629;28;20045;-68
2023/03/09 11:33:43;;;;;;;11.02;5.95;;;;;;;;;;5012593;28;20038;-67
2023/03/09 11:36:17;;;;;;;8.88;4.78;;;;;;;;;;5001928;28;20494;-67
2023/03/09 11:38:44;;;;;;;12.98;6.30;;;;;;;;;;4992889;28;20046;-68
2023/03/09 11:41:31;;;;;;;6.85;4.28;;;;;;;;;;4993132;28;20037;-68
2023/03/09 11:44:02;;;;;;;7.95;5.00;;;;;;;;;;4993297;28;20031;-68
2023/03/09 11:46:28;;;;;;;11.00;5.35;;;;;;;;;;4993133;28;20057;-68
2023/03/09 11:49:26;;;;;;;10.15;6.28;;;;;;;;;;4992794;28;20030;-68
2023/03/09 11:51:52;;;;;;;9.27;5.43;;;;;;;;;;4991845;28;20071;-68
2023/03/09 11:54:33;;;;;;;9.90;5.55;;;;;;;;;;4993178;28;20654;-68
2023/03/09 11:57:01;;;;;;;9.25;4.65;;;;;;;;;;4992880;28;20026;-69
2023/03/09 11:59:47;;;;;;;11.93;6.40;;;;;;;;;;4993141;28;20022;-70
2023/03/09 12:02:19;;;;;;;15.20;6.80;;;;;;;;;;4992813;28;20029;-68
2023/03/09 12:04:49;;;;;;;12.75;6.25;;;;;;;;;;4992834;28;20534;-68
2023/03/09 12:07:24;;;;;;;10.00;5.35;;;;;;;;;;4992834;28;20026;-68
2023/03/09 12:09:55;;;;;;;13.85;5.93;;;;;;;;;;4993095;28;20085;-68
2023/03/09 12:12:42;;;;;;;8.05;4.38;;;;;;;;;;4992979;28;20061;-68
2023/03/09 12:15:23;;;;;;;13.18;6.72;;;;;;;;;;4993006;28;20395;-68
2023/03/09 12:18:19;;;;;;;6.43;4.40;;;;;;;;;;4991959;28;20105;-69
2023/03/09 12:20:52;;;;;;;13.18;7.63;;;;;;;;;;4991820;28;20027;-69
2023/03/09 12:23:35;;;;;;;12.25;7.15;;;;;;;;;;4992814;28;20027;-69
2023/03/09 12:26:06;;;;;;;14.85;8.10;;;;;;;;;;4992856;28;20348;-68
2023/03/09 12:28:33;;;;;;;;;;;;;;;;;;4994953;28;20038;-70
2023/03/09 12:30:58;;;;;;;12.00;6.97;;;;;;;;;;4996294;28;19941;-69
2023/03/09 12:33:58;;;;;;;15.63;8.85;;;;;;;;;;4996591;28;20487;-69
2023/03/09 12:36:51;;;;;;;11.88;7.28;;;;;;;;;;4992615;28;20106;-69
2023/03/09 12:39:23;;;;;;;15.70;7.75;;;;;;;;;;4995284;28;20034;-69
2023/03/09 12:42:06;;;;;;;15.90;7.97;;;;;;;;;;4996464;28;20109;-69
2023/03/09 12:44:46;;;;;;;12.40;7.75;;;;;;;;;;4996328;28;20034;-69
2023/03/09 12:47:36;;;;;;;9.30;5.97;;;;;;;;;;4996173;28;20030;-69
2023/03/09 12:50:05;;;;;;;22.35;9.45;;;;;;;;;;4996250;28;20121;-69
2023/03/09 12:52:47;;;;;;;21.70;10.02;;;;;;;;;;4994214;28;20038;-69
2023/03/09 12:55:24;;;;;;;29.20;11.70;;;;;;;;;;4996264;28;20030;-69
2023/03/09 12:58:20;;;;;;;20.65;9.50;;;;;;;;;;4996248;28;20030;-69
2023/03/09 13:01:01;;;;;;;7.30;4.13;;;;;;;;;;4994398;28;20030;-68
2023/03/09 13:03:46;;;;;;;16.70;7.93;;;;;;;;;;4996075;28;20384;-68
2023/03/09 13:06:30;;;;;;;21.63;10.10;;;;;;;;;;4995894;28;20547;-68
2023/03/09 13:08:57;;;;;;;19.35;8.77;;;;;;;;;;4995710;28;20030;-67
2023/03/09 13:11:25;;;;;;;15.05;8.30;;;;;;;;;;4995013;28;20030;-68
2023/03/09 13:13:57;;;;;;;18.13;10.45;;;;;;;;;;4989774;28;20062;-69
2023/03/09 13:16:31;;;;;;;10.85;6.13;;;;;;;;;;4995523;28;20427;-69
2023/03/09 13:19:18;;;;;;;14.35;8.73;;;;;;;;;;4995234;28;20483;-68
2023/03/09 13:21:48;;;;;;;11.55;6.63;;;;;;;;;;4995435;28;20038;-68
2023/03/09 13:24:24;;;;;;;14.25;7.85;;;;;;;;;;4994187;28;20026;-68
2023/03/09 13:26:56;;;;;;;13.82;7.00;;;;;;;;;;4995152;28;20693;-68
2023/03/09 13:29:24;;;;;;;11.80;6.57;;;;;;;;;;4995188;28;20077;-68
2023/03/09 13:31:50;;;;;;;9.00;5.47;;;;;;;;;;4995436;28;20034;-68
2023/03/09 13:34:21;;;;;;;15.95;7.38;;;;;;;;;;4994378;28;20038;-68
2023/03/09 13:36:49;;;;;;;20.05;9.30;;;;;;;;;;4995101;28;20049;-68
2023/03/09 13:39:18;;;;;;;13.43;6.97;;;;;;;;;;4994679;28;20030;-68
2023/03/09 13:41:43;;;;;;;19.65;8.38;;;;;;;;;;4995112;28;20026;-68
2023/03/09 13:44:21;;;;;;;17.80;8.07;;;;;;;;;;4994783;28;20030;-68
2023/03/09 13:46:48;;;;;;;22.83;7.93;;;;;;;;;;4993898;28;20030;-68
2023/03/09 13:49:25;;;;;;;17.15;7.22;;;;;;;;;;4994804;28;20034;-68
2023/03/09 13:51:52;;;;;;;40.53;17.48;;;;;;;;;;4994845;28;20053;-68
2023/03/09 13:54:26;;;;;;;22.40;9.80;;;;;;;;;;4994567;28;20034;-68
2023/03/09 13:56:57;;;;;;;26.60;12.82;;;;;;;;;;4994723;28;20515;-68
2023/03/09 13:59:23;;;;;;;12.07;5.90;;;;;;;;;;4994540;28;20039;-68
2023/03/09 14:01:48;;;;;;;20.33;9.57;;;;;;;;;;4994487;28;20034;-68
2023/03/09 14:04:16;;;;;;;31.48;13.18;;;;;;;;;;4994371;28;20065;-68
2023/03/09 14:06:41;;;;;;;27.13;12.40;;;;;;;;;;4994569;28;20030;-68
2023/03/09 14:09:21;;;;;;;34.30;15.07;;;;;;;;;;4994603;28;20468;-69
2023/03/09 14:11:47;;;;;;;25.70;12.20;;;;;;;;;;4989754;28;20030;-68
2023/03/09 14:14:19;;;;;;;28.70;12.80;;;;;;;;;;4994284;28;20026;-69
2023/03/09 14:16:47;;;;;;;30.50;14.65;;;;;;;;;;4994118;28;20030;-71
2023/03/09 14:19:21;;;;;;;23.95;9.57;;;;;;;;;;4994552;28;20468;-70
2023/03/09 14:21:51;;;;;;;13.10;6.88;;;;;;;;;;4994322;28;20030;-68
2023/03/09 14:24:17;;;;;;;15.77;8.20;;;;;;;;;;4994302;28;20387;-70
2023/03/09 14:26:44;;;;;;;21.10;10.18;;;;;;;;;;4992907;28;20030;-69
2023/03/09 14:29:16;;;;;;;30.30;12.45;;;;;;;;;;4994044;28;20573;-69
2023/03/09 14:31:42;;;;;;;15.82;8.02;;;;;;;;;;4994638;28;20038;-69
2023/03/09 14:34:19;;;;;;;16.80;8.63;;;;;;;;;;4993943;28;20034;-70
2023/03/09 14:36:56;;;;;;;13.95;6.78;;;;;;;;;;4993914;28;20030;-69
2023/03/09 14:39:34;;;;;;;25.98;9.93;;;;;;;;;;4993841;28;20038;-69
2023/03/09 14:42:14;;;;;;;26.98;10.15;;;;;;;;;;4993787;28;20050;-69